»·PEaware :: ACA84 CYYZ-LLBG

ACA84 :: CYYZ-LLBG

FLIGHT INFORMATION

Flight Status: Arrived
Operator:
Air Canada
More flights by this operator :: More flights under this callsign
Pilot: Anonymous 14085 (14085)
Aircraft: AIRBUS A330
(A330)
More flights by this aircraft type
Origin: CYYZ Toronto/Pearson Intl
Canada
Destination: LLBG Ben Gurion
Israel
More flights between these airports :: More routes between these airports
Route: VERDO5 EPSAT Q921 AGLUK ANCER YBC YYR HOIST 55N050W 55N040W 55N030W 54N020W DOGAL BEXET MORAG KONAN UL607 KOK UM150 PITES BABEG KUMOM NIPEL ABISO NEMEK GILUK OSLUD GORAV MODRA MEDUX UM867 KOGAT ERANA UL737 TSL UN130 MES UL609 APLON UL609 SOLIN
File this flight plan on PilotEdge
Remarks:
Altitude:
(Current/Filed)
35,000ft
Speed:
(Current/Filed)
450kts
Departed: 08-Jun-17 09:55 PM
Arrived: 09-Jun-17 08:25 AM
Distance/Time
Traveled:
5015nm/10:30
Distance/Time
To Go:
Arrived

Flight Plot

Page will automatically refresh every two minutes.

Flight plan parsing failed; only flown route is shown


Map Options




Map Legend


Flown Route
Filed Route
Departure Airport
Arrival Airport
Navaid (VOR, NDB)
Fix

Horizontal Profiles

Position Reports

Time Latitude Longitude Heading Altitude Ground
Speed
08-Jun-17 21:27 43.675829 -79.612628 32 569ft 0kts
08-Jun-17 21:28 43.675829 -79.612628 32 569ft 0kts
08-Jun-17 21:29 43.675829 -79.612628 32 569ft 0kts
08-Jun-17 21:30 43.675829 -79.612628 32 569ft 0kts
08-Jun-17 21:31 43.675829 -79.612628 32 569ft 0kts
08-Jun-17 21:32 43.675829 -79.612628 32 569ft 0kts
08-Jun-17 21:33 43.675829 -79.612628 32 569ft 0kts
08-Jun-17 21:34 43.675829 -79.612628 32 569ft 0kts
08-Jun-17 21:35 43.675829 -79.612628 32 569ft 0kts
08-Jun-17 21:36 43.675829 -79.612628 32 569ft 0kts
08-Jun-17 21:37 43.675829 -79.612628 32 569ft 0kts
08-Jun-17 21:38 43.675829 -79.612628 32 569ft 0kts
08-Jun-17 21:39 43.675829 -79.612628 32 569ft 0kts
08-Jun-17 21:40 43.675829 -79.612628 32 569ft 0kts
08-Jun-17 21:41 43.675829 -79.612628 32 569ft 0kts
08-Jun-17 21:42 43.675829 -79.612628 32 569ft 0kts
08-Jun-17 21:43 43.675829 -79.612628 32 569ft 0kts
08-Jun-17 21:44 43.675829 -79.612628 32 569ft 0kts
08-Jun-17 21:45 43.675829 -79.612628 32 569ft 0kts
08-Jun-17 21:46 43.675829 -79.612628 32 569ft 0kts
08-Jun-17 21:47 43.675829 -79.612628 32 569ft 0kts
08-Jun-17 21:48 43.675552 -79.613001 111 568ft 0kts
08-Jun-17 21:49 43.675552 -79.613000 111 568ft 0kts
08-Jun-17 21:50 43.675552 -79.613000 111 568ft 0kts
08-Jun-17 21:51 43.675556 -79.612971 108 568ft 0kts
08-Jun-17 21:52 43.674915 -79.611000 104 565ft 8kts
08-Jun-17 21:53 43.676115 -79.608215 44 566ft 12kts
08-Jun-17 21:54 43.677648 -79.604037 45 561ft 13kts
08-Jun-17 21:55 43.680202 -79.600306 46 558ft 7kts
08-Jun-17 21:56 43.679423 -79.597229 155 551ft 13kts
08-Jun-17 21:57 43.675703 -79.602115 227 551ft 76kts
08-Jun-17 21:58 43.648854 -79.639395 219 1493ft 163kts
08-Jun-17 21:59 43.600383 -79.628223 158 1958ft 241kts
08-Jun-17 22:00 43.532350 -79.596471 150 3889ft 273kts
08-Jun-17 22:01 43.521996 -79.499585 77 6302ft 284kts
08-Jun-17 22:02 43.545035 -79.397732 61 8660ft 287kts
08-Jun-17 22:03 43.580390 -79.298594 62 10353ft 314kts
08-Jun-17 22:04 43.622440 -79.182256 62 11322ft 370kts
08-Jun-17 22:05 43.661990 -79.072598 62 12707ft 395kts
08-Jun-17 22:06 43.719556 -78.912280 62 15107ft 412kts
08-Jun-17 22:07 43.770253 -78.770308 63 16986ft 427kts
08-Jun-17 22:08 43.821954 -78.621273 63 18744ft 441kts
08-Jun-17 22:09 43.875075 -78.467120 64 20379ft 455kts
08-Jun-17 22:10 43.919792 -78.336779 64 21611ft 467kts
08-Jun-17 22:11 43.983908 -78.148482 65 23224ft 482kts
08-Jun-17 22:12 44.031480 -78.008044 65 24297ft 492kts
08-Jun-17 22:13 44.099701 -77.805358 65 25597ft 509kts
08-Jun-17 22:14 44.149050 -77.658169 65 26462ft 519kts
08-Jun-17 22:15 44.229409 -77.453683 50 27585ft 531kts
08-Jun-17 22:16 44.304431 -77.320416 50 28332ft 540kts
08-Jun-17 22:17 44.397092 -77.156540 50 29352ft 545kts
08-Jun-17 22:18 44.490315 -76.990923 50 30442ft 547kts
08-Jun-17 22:19 44.583388 -76.824618 50 31524ft 546kts
08-Jun-17 22:20 44.675691 -76.659520 49 32507ft 546kts
08-Jun-17 22:21 44.769156 -76.494331 49 33403ft 546kts
08-Jun-17 22:22 44.862037 -76.329239 50 34234ft 546kts
08-Jun-17 22:23 44.938146 -76.149953 71 34914ft 543kts
08-Jun-17 22:24 44.987369 -75.951995 73 35005ft 545kts
08-Jun-17 22:25 45.035896 -75.751353 73 34846ft 542kts
08-Jun-17 22:26 45.083776 -75.551322 73 34807ft 543kts
08-Jun-17 22:27 45.131313 -75.351472 73 34857ft 543kts
08-Jun-17 22:28 45.178512 -75.150864 74 34993ft 545kts
08-Jun-17 22:29 45.225518 -74.949087 74 34995ft 544kts
08-Jun-17 22:30 45.300429 -74.768724 46 35002ft 546kts
08-Jun-17 22:31 45.402956 -74.612988 44 34992ft 545kts
08-Jun-17 22:32 45.505593 -74.457902 44 34813ft 544kts
08-Jun-17 22:33 45.607970 -74.302322 45 34805ft 546kts
08-Jun-17 22:34 45.710953 -74.144844 45 34805ft 546kts
08-Jun-17 22:35 45.813722 -73.986891 45 34810ft 546kts
08-Jun-17 22:36 45.916366 -73.828207 45 34997ft 546kts
08-Jun-17 22:37 46.019248 -73.668283 46 34999ft 552kts
08-Jun-17 22:38 46.121356 -73.508544 46 34993ft 550kts
08-Jun-17 22:39 46.223833 -73.347553 47 34996ft 550kts
08-Jun-17 22:40 46.324786 -73.189064 47 34994ft 550kts
08-Jun-17 22:41 46.428192 -73.025762 46 35511ft 552kts
08-Jun-17 22:42 46.530406 -72.863446 46 36272ft 546kts
08-Jun-17 22:43 46.631706 -72.701577 46 36741ft 546kts
08-Jun-17 22:44 46.732979 -72.538725 46 37011ft 545kts
08-Jun-17 22:45 46.826180 -72.388087 46 36992ft 545kts
08-Jun-17 22:46 46.926363 -72.225036 47 37003ft 545kts
08-Jun-17 22:47 47.026810 -72.060673 47 36943ft 547kts
08-Jun-17 22:48 47.126681 -71.896358 46 36776ft 543kts
08-Jun-17 22:49 47.225351 -71.733001 46 36833ft 543kts
08-Jun-17 22:50 47.324835 -71.567264 46 36992ft 547kts
08-Jun-17 22:51 47.424165 -71.400709 46 36998ft 544kts
08-Jun-17 22:52 47.522983 -71.233826 47 36997ft 543kts
08-Jun-17 22:53 47.621769 -71.066137 47 36994ft 544kts
08-Jun-17 22:54 47.720289 -70.897831 47 36997ft 544kts
08-Jun-17 22:55 47.818488 -70.728970 46 37026ft 542kts
08-Jun-17 22:56 47.916542 -70.559363 46 37274ft 544kts
08-Jun-17 22:57 48.013832 -70.389980 46 37520ft 542kts
08-Jun-17 22:58 48.110399 -70.220644 47 37285ft 540kts
08-Jun-17 22:59 48.207696 -70.049291 47 37041ft 542kts
08-Jun-17 23:00 48.304272 -69.877928 47 36990ft 543kts
08-Jun-17 23:01 48.400949 -69.705207 47 36997ft 541kts
08-Jun-17 23:02 48.496944 -69.532657 47 36998ft 541kts
08-Jun-17 23:03 48.590370 -69.356238 50 36994ft 542kts
08-Jun-17 23:04 48.679177 -69.174147 51 36995ft 542kts
08-Jun-17 23:05 48.767832 -68.991191 51 36997ft 541kts
08-Jun-17 23:06 48.856087 -68.807820 51 36847ft 541kts
08-Jun-17 23:07 48.944223 -68.623383 51 36675ft 540kts
08-Jun-17 23:08 49.032095 -68.438292 51 36676ft 540kts
08-Jun-17 23:09 49.115512 -68.260598 49 36667ft 505kts
08-Jun-17 23:10 49.203738 -68.108292 41 36669ft 478kts
08-Jun-17 23:11 49.294727 -67.958974 41 36673ft 481kts
08-Jun-17 23:12 49.385656 -67.808938 41 36671ft 483kts
08-Jun-17 23:13 49.476242 -67.658565 41 36671ft 482kts
08-Jun-17 23:14 49.566676 -67.507559 41 36825ft 481kts
08-Jun-17 23:15 49.656987 -67.355884 41 36995ft 482kts
08-Jun-17 23:16 49.746487 -67.204558 42 36991ft 483kts
08-Jun-17 23:17 49.836603 -67.051376 42 36999ft 481kts
08-Jun-17 23:18 49.926273 -66.898071 42 36995ft 481kts
08-Jun-17 23:19 50.015689 -66.744282 42 36994ft 481kts
08-Jun-17 23:20 50.104786 -66.590124 42 36997ft 481kts
08-Jun-17 23:21 50.193850 -66.435301 42 36996ft 481kts
08-Jun-17 23:22 50.282390 -66.280265 42 37001ft 482kts
08-Jun-17 23:23 50.369885 -66.125930 42 36988ft 481kts
08-Jun-17 23:24 50.459718 -65.966702 42 36998ft 482kts
08-Jun-17 23:25 50.547850 -65.809509 42 36997ft 482kts
08-Jun-17 23:26 50.636360 -65.650660 42 36994ft 482kts
08-Jun-17 23:27 50.724080 -65.492253 42 36996ft 482kts
08-Jun-17 23:28 50.811799 -65.332856 43 36994ft 482kts
08-Jun-17 23:29 50.899184 -65.172904 43 36999ft 481kts
08-Jun-17 23:30 50.986852 -65.011633 43 36992ft 483kts
08-Jun-17 23:31 51.073945 -64.850371 43 36995ft 483kts
08-Jun-17 23:32 51.159694 -64.690813 43 36997ft 483kts
08-Jun-17 23:33 51.246417 -64.528228 43 36997ft 483kts
08-Jun-17 23:34 51.332868 -64.365095 43 36996ft 483kts
08-Jun-17 23:35 51.418936 -64.201497 44 36994ft 484kts
08-Jun-17 23:36 51.504942 -64.037158 44 37001ft 482kts
08-Jun-17 23:37 51.591121 -63.871310 44 36826ft 483kts
08-Jun-17 23:38 51.676607 -63.705789 44 36678ft 484kts
08-Jun-17 23:39 51.762326 -63.538722 44 36673ft 485kts
08-Jun-17 23:40 51.847718 -63.371192 44 36644ft 484kts
08-Jun-17 23:41 51.932779 -63.203082 45 36646ft 486kts
08-Jun-17 23:42 52.017772 -63.034112 45 36643ft 485kts
08-Jun-17 23:43 52.102502 -62.864546 45 36643ft 485kts
08-Jun-17 23:44 52.187056 -62.694325 44 36643ft 483kts
08-Jun-17 23:45 52.271416 -62.523376 45 36643ft 485kts
08-Jun-17 23:46 52.355393 -62.351906 45 36647ft 485kts
08-Jun-17 23:47 52.438743 -62.180313 45 36638ft 480kts
08-Jun-17 23:48 52.519233 -62.013870 45 36646ft 482kts
08-Jun-17 23:49 52.601674 -61.842086 45 36646ft 479kts
08-Jun-17 23:50 52.683736 -61.669961 45 36643ft 479kts
08-Jun-17 23:51 52.765836 -61.496590 45 36645ft 480kts
08-Jun-17 23:52 52.847379 -61.323275 46 36644ft 480kts
08-Jun-17 23:53 52.928839 -61.148652 46 36645ft 481kts
08-Jun-17 23:54 53.010117 -60.973425 46 36643ft 480kts
08-Jun-17 23:55 53.091071 -60.797679 46 36644ft 480kts
08-Jun-17 23:56 53.171446 -60.622242 46 36646ft 480kts
08-Jun-17 23:57 53.251947 -60.445052 46 36645ft 480kts
08-Jun-17 23:58 53.332338 -60.269307 41 36640ft 476kts
08-Jun-17 23:59 53.422928 -60.108376 41 36646ft 475kts
09-Jun-17 00:00 53.512223 -59.946089 41 36646ft 475kts
09-Jun-17 00:01 53.601648 -59.782419 41 36643ft 475kts
09-Jun-17 00:02 53.690741 -59.618254 41 36644ft 475kts
09-Jun-17 00:03 53.778439 -59.455570 41 36645ft 475kts
09-Jun-17 00:04 53.866807 -59.290447 42 36645ft 476kts
09-Jun-17 00:05 53.955151 -59.124268 42 36643ft 476kts
09-Jun-17 00:06 54.043331 -58.957326 42 36643ft 476kts
09-Jun-17 00:07 54.131360 -58.789679 42 36644ft 477kts
09-Jun-17 00:08 54.219591 -58.620396 42 36645ft 479kts
09-Jun-17 00:09 54.307463 -58.450551 42 36644ft 479kts
09-Jun-17 00:10 54.394416 -58.281190 43 36646ft 479kts
09-Jun-17 00:11 54.481824 -58.109803 43 36645ft 479kts
09-Jun-17 00:12 54.569406 -57.936912 43 36643ft 479kts
09-Jun-17 00:13 54.656361 -57.764036 43 36644ft 479kts
09-Jun-17 00:14 54.743695 -57.589152 43 36642ft 483kts
09-Jun-17 00:15 54.830756 -57.413574 43 36646ft 482kts
09-Jun-17 00:16 54.917711 -57.236785 44 36645ft 483kts
09-Jun-17 00:17 55.003694 -57.060119 47 36639ft 484kts
09-Jun-17 00:18 55.036418 -56.829238 83 36644ft 509kts
09-Jun-17 00:19 55.042528 -56.583582 84 36650ft 508kts
09-Jun-17 00:20 55.047331 -56.337540 85 36640ft 509kts
09-Jun-17 00:21 55.051631 -56.091585 85 36644ft 508kts
09-Jun-17 00:22 55.055442 -55.845396 85 36645ft 508kts
09-Jun-17 00:23 55.058752 -55.599465 85 36643ft 509kts
09-Jun-17 00:24 55.061570 -55.353226 85 36644ft 509kts
09-Jun-17 00:25 55.063885 -55.107606 86 36643ft 509kts
09-Jun-17 00:26 55.065713 -54.860714 86 36643ft 509kts
09-Jun-17 00:27 55.067009 -54.614699 86 36654ft 511kts
09-Jun-17 00:28 55.067871 -54.368294 86 36642ft 509kts
09-Jun-17 00:29 55.068203 -54.121224 87 36641ft 509kts
09-Jun-17 00:30 55.068038 -53.875123 87 36645ft 509kts
09-Jun-17 00:31 55.067373 -53.628045 87 36644ft 509kts
09-Jun-17 00:32 55.066209 -53.381320 87 36643ft 509kts
09-Jun-17 00:33 55.064553 -53.135031 88 36642ft 510kts
09-Jun-17 00:34 55.062397 -52.888843 88 36645ft 509kts
09-Jun-17 00:35 55.059731 -52.641512 88 36644ft 509kts
09-Jun-17 00:36 55.056576 -52.395032 88 36643ft 509kts
09-Jun-17 00:37 55.052933 -52.149051 88 36644ft 510kts
09-Jun-17 00:38 55.048774 -51.902201 88 36645ft 510kts
09-Jun-17 00:39 55.044126 -51.655873 88 36643ft 510kts
09-Jun-17 00:40 55.038964 -51.408818 89 36644ft 510kts
09-Jun-17 00:41 55.033336 -51.163057 89 36645ft 510kts
09-Jun-17 00:42 55.027189 -50.916710 89 36644ft 510kts
09-Jun-17 00:43 55.020545 -50.670371 89 36643ft 510kts
09-Jun-17 00:44 55.013393 -50.423772 89 36645ft 510kts
09-Jun-17 00:45 55.005766 -50.177823 90 36644ft 510kts
09-Jun-17 00:46 55.005475 -49.933402 77 36651ft 504kts
09-Jun-17 00:47 55.025076 -49.691726 78 36647ft 504kts
09-Jun-17 00:48 55.044240 -49.449641 78 36642ft 504kts
09-Jun-17 00:49 55.062879 -49.207915 79 36643ft 505kts
09-Jun-17 00:50 55.081024 -48.966152 79 36644ft 504kts
09-Jun-17 00:51 55.098751 -48.723414 79 36644ft 504kts
09-Jun-17 00:52 55.116063 -48.481325 79 36646ft 504kts
09-Jun-17 00:53 55.132611 -48.241369 80 36645ft 504kts
09-Jun-17 00:54 55.148855 -47.998448 80 36645ft 504kts
09-Jun-17 00:55 55.164660 -47.754845 80 36645ft 504kts
09-Jun-17 00:56 55.179924 -47.511899 80 36707ft 503kts
09-Jun-17 00:57 55.194728 -47.268445 81 36701ft 503kts
09-Jun-17 00:58 55.209004 -47.025305 81 36848ft 504kts
09-Jun-17 00:59 55.222855 -46.781065 81 36887ft 503kts
09-Jun-17 01:00 55.236231 -46.536578 81 36889ft 504kts
09-Jun-17 01:01 55.249067 -46.292941 82 36887ft 504kts
09-Jun-17 01:02 55.261435 -46.048338 82 36887ft 504kts
09-Jun-17 01:03 55.273288 -45.804517 82 36889ft 504kts
09-Jun-17 01:04 55.284680 -45.559987 82 36888ft 504kts
09-Jun-17 01:05 55.295600 -45.314982 82 36886ft 504kts
09-Jun-17 01:06 55.305996 -45.070271 82 36888ft 504kts
09-Jun-17 01:07 55.315910 -44.825606 82 36888ft 504kts
09-Jun-17 01:08 55.325348 -44.580437 82 36888ft 504kts
09-Jun-17 01:09 55.334287 -44.335376 83 36887ft 504kts
09-Jun-17 01:10 55.342727 -44.090214 83 36888ft 504kts
09-Jun-17 01:11 55.350674 -43.845302 83 36888ft 504kts
09-Jun-17 01:12 55.358145 -43.599813 83 36888ft 504kts
09-Jun-17 01:13 55.364836 -43.364712 83 36889ft 504kts
09-Jun-17 01:14 55.371592 -43.108974 84 36857ft 504kts
09-Jun-17 01:15 55.377590 -42.863124 84 36862ft 504kts
09-Jun-17 01:16 55.383071 -42.618292 84 36862ft 503kts
09-Jun-17 01:17 55.388085 -42.372214 84 36861ft 503kts
09-Jun-17 01:18 55.392592 -42.126458 85 36859ft 504kts
09-Jun-17 01:19 55.396615 -41.880470 85 36861ft 503kts
09-Jun-17 01:20 55.400130 -41.635462 85 36862ft 503kts
09-Jun-17 01:21 55.403167 -41.389487 85 36861ft 503kts
09-Jun-17 01:22 55.405318 -41.184471 86 36861ft 504kts
09-Jun-17 01:23 55.407852 -40.937398 90 36864ft 513kts
09-Jun-17 01:24 55.409347 -40.645246 90 36861ft 511kts
09-Jun-17 01:25 55.410406 -40.395491 90 36861ft 511kts
09-Jun-17 01:26 55.410901 -40.187871 91 36861ft 511kts
09-Jun-17 01:27 55.411022 -39.938184 91 36861ft 511kts
09-Jun-17 01:28 55.410649 -39.689278 91 36861ft 510kts
09-Jun-17 01:29 55.409563 -39.398954 91 36861ft 510kts
09-Jun-17 01:30 55.408339 -39.196973 91 36856ft 475kts
09-Jun-17 01:31 55.406330 -38.925773 91 36862ft 480kts
09-Jun-17 01:32 55.404478 -38.731719 91 36860ft 477kts
09-Jun-17 01:33 55.401839 -38.498130 91 36860ft 478kts
09-Jun-17 01:34 55.398798 -38.267434 92 36861ft 478kts
09-Jun-17 01:35 55.395272 -38.034054 92 36860ft 477kts
09-Jun-17 01:36 55.391311 -37.800966 92 36861ft 478kts
09-Jun-17 01:37 55.386889 -37.567059 92 36860ft 478kts
09-Jun-17 01:38 55.382048 -37.334482 92 36860ft 478kts
09-Jun-17 01:39 55.376749 -37.101152 92 36860ft 478kts
09-Jun-17 01:40 55.371042 -36.869399 92 36860ft 478kts
09-Jun-17 01:41 55.364854 -36.635315 92 36860ft 479kts
09-Jun-17 01:42 55.358198 -36.402126 92 36860ft 477kts
09-Jun-17 01:43 55.351151 -36.169907 93 36861ft 478kts
09-Jun-17 01:44 55.343645 -35.937296 93 36861ft 478kts
09-Jun-17 01:45 55.335674 -35.704085 93 36861ft 478kts
09-Jun-17 01:46 55.327280 -35.471489 93 36860ft 478kts
09-Jun-17 01:47 55.318444 -35.238954 94 36860ft 478kts
09-Jun-17 01:48 55.309201 -35.007205 94 36860ft 479kts
09-Jun-17 01:49 55.299462 -34.774736 94 36861ft 478kts
09-Jun-17 01:50 55.289309 -34.542639 94 36861ft 478kts
09-Jun-17 01:51 55.278713 -34.310686 95 36860ft 478kts
09-Jun-17 01:52 55.267694 -34.079121 95 36860ft 478kts
09-Jun-17 01:53 55.256219 -33.847403 95 36861ft 478kts
09-Jun-17 01:54 55.244309 -33.615851 95 36861ft 478kts
09-Jun-17 01:55 55.231947 -33.384274 95 36860ft 477kts
09-Jun-17 01:56 55.219199 -33.153568 96 36859ft 478kts
09-Jun-17 01:57 55.205937 -32.921784 96 36860ft 478kts
09-Jun-17 01:58 55.192302 -32.691230 96 36861ft 478kts
09-Jun-17 01:59 55.178241 -32.461010 96 36861ft 478kts
09-Jun-17 02:00 55.163689 -32.229945 97 36859ft 477kts
09-Jun-17 02:01 55.148746 -32.000146 97 36860ft 478kts
09-Jun-17 02:02 55.133367 -31.769887 97 36860ft 478kts
09-Jun-17 02:03 55.117521 -31.539593 97 36860ft 477kts
09-Jun-17 02:04 55.101304 -31.310331 98 36860ft 477kts
09-Jun-17 02:05 55.084600 -31.080451 98 36860ft 477kts
09-Jun-17 02:06 55.067486 -30.851141 98 36893ft 478kts
09-Jun-17 02:07 55.049961 -30.622429 98 36888ft 478kts
09-Jun-17 02:08 55.031972 -30.393165 98 36887ft 478kts
09-Jun-17 02:09 55.013570 -30.164360 99 36887ft 478kts
09-Jun-17 02:10 54.996561 -29.935957 96 36888ft 478kts
09-Jun-17 02:11 54.982952 -29.705797 96 36888ft 478kts
09-Jun-17 02:12 54.969096 -29.476417 96 36888ft 478kts
09-Jun-17 02:13 54.954818 -29.247161 97 36887ft 478kts
09-Jun-17 02:14 54.940106 -29.018174 97 36887ft 478kts
09-Jun-17 02:15 54.924930 -28.788835 97 36889ft 477kts
09-Jun-17 02:16 54.909341 -28.559910 97 36887ft 478kts
09-Jun-17 02:17 54.893369 -28.333286 98 36887ft 478kts
09-Jun-17 02:18 54.876912 -28.104925 98 36888ft 478kts
09-Jun-17 02:19 54.860064 -27.876938 98 36888ft 478kts
09-Jun-17 02:20 54.842734 -27.648399 98 36887ft 478kts
09-Jun-17 02:21 54.825006 -27.420453 98 36888ft 478kts
09-Jun-17 02:22 54.806945 -27.193432 99 36890ft 478kts
09-Jun-17 02:23 54.788298 -26.965326 98 36887ft 477kts
09-Jun-17 02:24 54.769341 -26.738557 98 36887ft 477kts
09-Jun-17 02:25 54.749882 -26.511089 99 36888ft 478kts
09-Jun-17 02:26 54.730053 -26.284373 99 36888ft 477kts
09-Jun-17 02:27 54.709790 -26.057795 99 36887ft 477kts
09-Jun-17 02:28 54.689099 -25.831431 99 36887ft 477kts
09-Jun-17 02:29 54.668056 -25.606036 99 36888ft 477kts
09-Jun-17 02:30 54.646529 -25.380200 100 36888ft 477kts
09-Jun-17 02:31 54.624573 -25.154367 100 36888ft 477kts
09-Jun-17 02:32 54.602242 -24.929342 100 36888ft 477kts
09-Jun-17 02:33 54.579483 -24.704474 100 36811ft 476kts
09-Jun-17 02:34 54.556269 -24.479491 100 36804ft 477kts
09-Jun-17 02:35 54.532641 -24.254645 101 36806ft 477kts
09-Jun-17 02:36 54.508609 -24.030314 101 36808ft 477kts
09-Jun-17 02:37 54.484207 -23.806650 101 36806ft 477kts
09-Jun-17 02:38 54.459373 -23.583100 101 36806ft 477kts
09-Jun-17 02:39 54.434134 -23.359876 101 36806ft 477kts
09-Jun-17 02:40 54.408485 -23.136795 102 36806ft 477kts
09-Jun-17 02:41 54.382417 -22.914060 102 36807ft 477kts
09-Jun-17 02:42 54.356203 -22.693810 102 36807ft 477kts
09-Jun-17 02:43 54.329065 -22.469547 102 36807ft 477kts
09-Jun-17 02:44 54.301780 -22.247616 103 36806ft 477kts
09-Jun-17 02:45 54.274096 -22.026138 103 36804ft 477kts
09-Jun-17 02:46 54.245465 -21.799813 107 36805ft 497kts
09-Jun-17 02:47 54.214945 -21.564626 106 36810ft 518kts
09-Jun-17 02:48 54.183197 -21.322580 107 36806ft 521kts
09-Jun-17 02:49 54.151190 -21.082395 107 36813ft 518kts
09-Jun-17 02:50 54.118521 -20.842118 107 36805ft 522kts
09-Jun-17 02:51 54.085467 -20.602412 107 36805ft 522kts
09-Jun-17 02:52 54.051894 -20.362794 107 36808ft 522kts
09-Jun-17 02:53 54.017802 -20.123159 108 36805ft 523kts
09-Jun-17 02:54 54.002608 -19.878116 90 36799ft 534kts
09-Jun-17 02:55 54.007290 -19.626037 90 36801ft 533kts
09-Jun-17 02:56 54.011414 -19.375020 90 36807ft 534kts
09-Jun-17 02:57 54.015052 -19.123503 91 36806ft 535kts
09-Jun-17 02:58 54.018201 -18.871255 91 36807ft 534kts
09-Jun-17 02:59 54.020797 -18.618634 91 36806ft 535kts
09-Jun-17 03:00 54.022890 -18.365838 91 36807ft 536kts
09-Jun-17 03:01 54.024462 -18.115354 92 36804ft 536kts
09-Jun-17 03:02 54.025448 -17.861721 92 36803ft 538kts
09-Jun-17 03:03 54.025945 -17.608418 91 36808ft 538kts
09-Jun-17 03:04 54.025912 -17.353842 91 36808ft 539kts
09-Jun-17 03:05 54.025321 -17.099895 92 36805ft 540kts
09-Jun-17 03:06 54.024220 -16.844962 92 36806ft 540kts
09-Jun-17 03:07 54.022561 -16.589593 92 36801ft 542kts
09-Jun-17 03:08 54.020361 -16.334126 93 36808ft 542kts
09-Jun-17 03:09 54.017610 -16.078892 93 36808ft 543kts
09-Jun-17 03:10 54.014320 -15.822181 93 36805ft 543kts
09-Jun-17 03:11 54.010469 -15.565621 93 36806ft 544kts
09-Jun-17 03:12 54.006072 -15.308778 94 36804ft 545kts
09-Jun-17 03:13 54.001073 -15.051747 93 36813ft 548kts
09-Jun-17 03:14 54.000730 -14.794940 91 36808ft 548kts
09-Jun-17 03:15 54.001092 -14.536263 91 36806ft 548kts
09-Jun-17 03:16 54.000918 -14.277567 92 36804ft 548kts
09-Jun-17 03:17 53.999661 -14.019354 96 36802ft 549kts
09-Jun-17 03:18 53.974486 -13.765010 103 36809ft 547kts
09-Jun-17 03:19 53.946366 -13.511253 103 36808ft 548kts
09-Jun-17 03:20 53.917583 -13.257389 104 36806ft 551kts
09-Jun-17 03:21 53.888288 -13.003746 104 36803ft 551kts
09-Jun-17 03:22 53.858372 -12.749665 104 36808ft 551kts
09-Jun-17 03:23 53.827875 -12.495464 104 36809ft 552kts
09-Jun-17 03:24 53.797815 -12.249323 104 36807ft 553kts
09-Jun-17 03:25 53.766112 -11.994862 104 36807ft 555kts
09-Jun-17 03:26 53.733872 -11.740509 104 36806ft 556kts
09-Jun-17 03:27 53.700857 -11.485813 104 36817ft 560kts
09-Jun-17 03:28 53.667587 -11.231403 105 36803ft 558kts
09-Jun-17 03:29 53.633545 -10.977178 105 36806ft 559kts
09-Jun-17 03:30 53.598809 -10.721976 105 36808ft 560kts
09-Jun-17 03:31 53.563453 -10.466537 105 36808ft 561kts
09-Jun-17 03:32 53.527658 -10.212242 105 36803ft 562kts
09-Jun-17 03:33 53.491503 -9.959777 105 36807ft 563kts
09-Jun-17 03:34 53.454282 -9.704122 105 36807ft 565kts
09-Jun-17 03:35 53.416555 -9.448474 105 36812ft 564kts
09-Jun-17 03:36 53.378267 -9.194203 106 36806ft 567kts
09-Jun-17 03:37 53.339358 -8.939567 106 36805ft 567kts
09-Jun-17 03:38 53.299788 -8.684472 106 36808ft 568kts
09-Jun-17 03:39 53.259568 -8.429369 106 36809ft 569kts
09-Jun-17 03:40 53.219616 -8.179487 107 36807ft 569kts
09-Jun-17 03:41 53.178357 -7.925374 107 36829ft 570kts
09-Jun-17 03:42 53.136467 -7.671288 106 36833ft 570kts
09-Jun-17 03:43 53.094060 -7.417559 107 36835ft 568kts
09-Jun-17 03:44 53.051192 -7.165158 107 36838ft 570kts
09-Jun-17 03:45 53.007693 -6.912597 107 36834ft 570kts
09-Jun-17 03:46 52.963817 -6.661315 108 36835ft 569kts
09-Jun-17 03:47 52.919308 -6.410177 108 36836ft 569kts
09-Jun-17 03:48 52.874855 -6.163128 109 36835ft 568kts
09-Jun-17 03:49 52.829575 -5.914424 109 36833ft 567kts
09-Jun-17 03:50 52.783668 -5.665764 109 36834ft 567kts
09-Jun-17 03:51 52.738287 -5.418684 108 36863ft 567kts
09-Jun-17 03:52 52.694007 -5.172121 109 36865ft 565kts
09-Jun-17 03:53 52.649030 -4.924977 109 36860ft 564kts
09-Jun-17 03:54 52.603617 -4.678938 109 36861ft 564kts
09-Jun-17 03:55 52.557722 -4.433422 109 36863ft 563kts
09-Jun-17 03:56 52.511660 -4.190088 110 36859ft 561kts
09-Jun-17 03:57 52.465002 -3.946942 110 36860ft 561kts
09-Jun-17 03:58 52.417879 -3.704459 110 36862ft 560kts
09-Jun-17 03:59 52.370429 -3.463334 110 36863ft 559kts
09-Jun-17 04:00 52.322679 -3.223466 111 36858ft 558kts
09-Jun-17 04:01 52.274329 -2.983772 111 36861ft 557kts
09-Jun-17 04:02 52.225575 -2.745003 111 36861ft 557kts
09-Jun-17 04:03 52.176826 -2.509092 111 36882ft 556kts
09-Jun-17 04:04 52.127399 -2.272307 112 36887ft 554kts
09-Jun-17 04:05 52.077524 -2.036782 113 36888ft 554kts
09-Jun-17 04:06 52.027225 -1.801761 113 36888ft 553kts
09-Jun-17 04:07 51.976508 -1.567469 113 36925ft 553kts
09-Jun-17 04:08 51.925851 -1.336069 114 36919ft 551kts
09-Jun-17 04:09 51.874727 -1.105543 114 36914ft 551kts
09-Jun-17 04:10 51.822820 -0.873758 114 36914ft 550kts
09-Jun-17 04:11 51.770546 -0.642804 114 36916ft 549kts
09-Jun-17 04:12 51.717855 -0.412582 114 36917ft 549kts
09-Jun-17 04:13 51.665171 -0.184676 115 36916ft 547kts
09-Jun-17 04:14 51.611858 0.043342 115 36944ft 547kts
09-Jun-17 04:15 51.558189 0.270501 115 36944ft 546kts
09-Jun-17 04:16 51.505371 0.491851 116 36947ft 526kts
09-Jun-17 04:17 51.452577 0.710834 117 36939ft 527kts
09-Jun-17 04:18 51.400904 0.922864 117 36940ft 528kts
09-Jun-17 04:19 51.347509 1.140012 117 36941ft 526kts
09-Jun-17 04:20 51.293956 1.355560 117 36942ft 525kts
09-Jun-17 04:21 51.240065 1.570480 117 36942ft 523kts
09-Jun-17 04:22 51.187340 1.778717 118 36998ft 524kts
09-Jun-17 04:23 51.133989 1.991428 111 36989ft 524kts
09-Jun-17 04:24 51.118845 2.224090 98 37001ft 533kts
09-Jun-17 04:25 51.105879 2.457748 98 36995ft 532kts
09-Jun-17 04:26 51.081814 2.682572 121 37002ft 514kts
09-Jun-17 04:27 51.017950 2.882629 124 36996ft 509kts
09-Jun-17 04:28 50.952089 3.079337 124 36994ft 508kts
09-Jun-17 04:29 50.887019 3.271834 124 36998ft 507kts
09-Jun-17 04:30 50.820925 3.465646 124 36976ft 508kts
09-Jun-17 04:31 50.754776 3.658491 125 37029ft 504kts
09-Jun-17 04:32 50.688234 3.851195 125 37022ft 502kts
09-Jun-17 04:33 50.623391 4.037339 125 37001ft 502kts
09-Jun-17 04:34 50.556541 4.227863 125 37031ft 500kts
09-Jun-17 04:35 50.500726 4.385847 125 37023ft 500kts
09-Jun-17 04:36 50.422367 4.606029 125 37022ft 498kts
09-Jun-17 04:37 50.355410 4.792791 126 37025ft 497kts
09-Jun-17 04:38 50.287971 4.979444 126 37023ft 495kts
09-Jun-17 04:39 50.232086 5.133008 126 37003ft 497kts
09-Jun-17 04:40 50.164279 5.318262 126 36995ft 493kts
09-Jun-17 04:41 50.096583 5.501834 126 36995ft 492kts
09-Jun-17 04:42 50.028953 5.684005 126 37013ft 491kts
09-Jun-17 04:43 49.961014 5.865768 126 37022ft 490kts
09-Jun-17 04:44 49.881662 6.076240 126 37023ft 489kts
09-Jun-17 04:45 49.828256 6.227350 122 37024ft 485kts
09-Jun-17 04:46 49.765603 6.411202 122 37022ft 486kts
09-Jun-17 04:47 49.704317 6.596120 120 37024ft 488kts
09-Jun-17 04:48 49.646815 6.777169 121 37025ft 485kts
09-Jun-17 04:49 49.587417 6.962971 121 37047ft 487kts
09-Jun-17 04:50 49.527684 7.148347 121 37026ft 486kts
09-Jun-17 04:51 49.467678 7.333174 121 37023ft 487kts
09-Jun-17 04:52 49.407119 7.518348 121 37023ft 487kts
09-Jun-17 04:53 49.346856 7.701375 122 37022ft 486kts
09-Jun-17 04:54 49.285952 7.884973 122 37022ft 486kts
09-Jun-17 04:55 49.224724 8.068166 122 37023ft 486kts
09-Jun-17 04:56 49.163405 8.250277 122 37075ft 487kts
09-Jun-17 04:57 49.101536 8.432785 122 37075ft 487kts
09-Jun-17 04:58 49.039328 8.614975 122 37077ft 487kts
09-Jun-17 04:59 48.977250 8.795617 122 37076ft 487kts
09-Jun-17 05:00 48.914326 8.977297 122 37076ft 488kts
09-Jun-17 05:01 48.851984 9.155722 122 37076ft 487kts
09-Jun-17 05:02 48.788689 9.335922 122 37077ft 488kts
09-Jun-17 05:03 48.726690 9.511250 122 37078ft 488kts
09-Jun-17 05:04 48.664188 9.685408 125 37075ft 486kts
09-Jun-17 05:05 48.595871 9.858972 125 37077ft 487kts
09-Jun-17 05:06 48.526822 10.033614 125 37076ft 487kts
09-Jun-17 05:07 48.457653 10.207393 125 37077ft 487kts
09-Jun-17 05:08 48.388179 10.380834 125 37077ft 487kts
09-Jun-17 05:09 48.318405 10.553884 125 37077ft 487kts
09-Jun-17 05:10 48.248606 10.726029 125 37076ft 487kts
09-Jun-17 05:11 48.178460 10.897799 125 37076ft 487kts
09-Jun-17 05:12 48.107930 11.069396 125 37076ft 488kts
09-Jun-17 05:13 48.036892 11.241139 125 37049ft 488kts
09-Jun-17 05:14 47.965983 11.411470 125 37095ft 488kts
09-Jun-17 05:15 47.894751 11.581542 125 37049ft 487kts
09-Jun-17 05:16 47.825062 11.746713 126 37048ft 487kts
09-Jun-17 05:17 47.753067 11.916475 126 37049ft 487kts
09-Jun-17 05:18 47.680973 12.085417 126 37027ft 487kts
09-Jun-17 05:19 47.609952 12.250808 125 37024ft 488kts
09-Jun-17 05:20 47.531941 12.411687 135 37024ft 483kts
09-Jun-17 05:21 47.441954 12.556782 136 37209ft 483kts
09-Jun-17 05:22 47.351429 12.700762 136 37375ft 482kts
09-Jun-17 05:23 47.260375 12.844692 136 37482ft 483kts
09-Jun-17 05:24 47.169660 12.987143 134 37481ft 479kts
09-Jun-17 05:25 47.078737 13.129427 134 37481ft 480kts
09-Jun-17 05:26 46.987829 13.270792 134 37397ft 481kts
09-Jun-17 05:27 46.896660 13.411811 134 37191ft 481kts
09-Jun-17 05:28 46.805867 13.551299 134 37077ft 481kts
09-Jun-17 05:29 46.714478 13.691247 135 37078ft 481kts
09-Jun-17 05:30 46.622450 13.831426 135 37077ft 481kts
09-Jun-17 05:31 46.530521 13.970658 135 37076ft 481kts
09-Jun-17 05:32 46.437079 14.106637 136 37076ft 481kts
09-Jun-17 05:33 46.341756 14.240975 136 37108ft 481kts
09-Jun-17 05:34 46.246682 14.374238 136 37102ft 481kts
09-Jun-17 05:35 46.150974 14.507806 136 37105ft 481kts
09-Jun-17 05:36 46.055388 14.640544 136 37104ft 481kts
09-Jun-17 05:37 45.959542 14.773085 137 37103ft 481kts
09-Jun-17 05:38 45.863887 14.904451 137 37081ft 480kts
09-Jun-17 05:39 45.767733 15.035905 137 37075ft 481kts
09-Jun-17 05:40 45.671513 15.166844 137 37076ft 481kts
09-Jun-17 05:41 45.575638 15.297888 133 37074ft 481kts
09-Jun-17 05:42 45.490190 15.443689 130 37077ft 482kts
09-Jun-17 05:43 45.404879 15.589963 130 37077ft 482kts
09-Jun-17 05:44 45.319866 15.735151 131 37076ft 482kts
09-Jun-17 05:45 45.234360 15.880316 131 37076ft 482kts
09-Jun-17 05:46 45.148802 16.024811 131 37076ft 482kts
09-Jun-17 05:47 45.062709 16.169466 131 37077ft 482kts
09-Jun-17 05:48 44.976920 16.312875 131 37113ft 481kts
09-Jun-17 05:49 44.892256 16.453672 131 37070ft 481kts
09-Jun-17 05:50 44.805675 16.596742 131 37078ft 482kts
09-Jun-17 05:51 44.719413 16.738907 131 37077ft 482kts
09-Jun-17 05:52 44.632550 16.881224 131 37076ft 482kts
09-Jun-17 05:53 44.545556 17.023031 131 37076ft 482kts
09-Jun-17 05:54 44.458385 17.164416 131 37076ft 482kts
09-Jun-17 05:55 44.371180 17.305156 131 37077ft 482kts
09-Jun-17 05:56 44.283400 17.446121 131 37077ft 482kts
09-Jun-17 05:57 44.195677 17.586300 131 37077ft 481kts
09-Jun-17 05:58 44.108231 17.725471 132 37076ft 481kts
09-Jun-17 05:59 44.020311 17.864606 132 37076ft 481kts
09-Jun-17 06:00 43.932004 18.003662 132 37077ft 481kts
09-Jun-17 06:01 43.846477 18.141423 128 37079ft 482kts
09-Jun-17 06:02 43.764002 18.287068 129 37076ft 482kts
09-Jun-17 06:03 43.681337 18.432086 129 37076ft 482kts
09-Jun-17 06:04 43.599306 18.575287 129 37077ft 482kts
09-Jun-17 06:05 43.516930 18.718509 129 37076ft 481kts
09-Jun-17 06:06 43.434013 18.861744 129 37077ft 482kts
09-Jun-17 06:07 43.350367 19.005409 129 37077ft 482kts
09-Jun-17 06:08 43.267145 19.147768 129 37159ft 482kts
09-Jun-17 06:09 43.183474 19.290320 129 37157ft 482kts
09-Jun-17 06:10 43.099658 19.432433 129 37158ft 482kts
09-Jun-17 06:11 43.015783 19.573960 129 37158ft 481kts
09-Jun-17 06:12 42.932137 19.714496 130 37025ft 480kts
09-Jun-17 06:13 42.848516 19.854022 130 37020ft 482kts
09-Jun-17 06:14 42.763952 19.994610 130 37023ft 481kts
09-Jun-17 06:15 42.679493 20.134324 130 37101ft 482kts
09-Jun-17 06:16 42.594553 20.274161 130 37103ft 481kts
09-Jun-17 06:17 42.509677 20.413235 130 37104ft 481kts
09-Jun-17 06:18 42.424419 20.552280 130 37104ft 481kts
09-Jun-17 06:19 42.339834 20.689657 131 37103ft 481kts
09-Jun-17 06:20 42.254437 20.827702 131 37104ft 481kts
09-Jun-17 06:21 42.168858 20.965338 131 37103ft 481kts
09-Jun-17 06:22 42.079410 21.097173 137 37042ft 479kts
09-Jun-17 06:23 41.982500 21.220738 137 37048ft 480kts
09-Jun-17 06:24 41.886735 21.341762 137 37051ft 480kts
09-Jun-17 06:25 41.789705 21.463764 139 37046ft 477kts
09-Jun-17 06:26 41.692592 21.585385 139 37050ft 479kts
09-Jun-17 06:27 41.597331 21.704315 139 37049ft 479kts
09-Jun-17 06:28 41.500283 21.824899 139 37050ft 478kts
09-Jun-17 06:29 41.403144 21.945043 139 37050ft 479kts
09-Jun-17 06:30 41.305590 22.065187 139 37049ft 478kts
09-Jun-17 06:31 41.208083 22.184760 139 37050ft 478kts
09-Jun-17 06:32 41.108010 22.299007 143 36971ft 476kts
09-Jun-17 06:33 41.005394 22.409330 143 36967ft 477kts
09-Jun-17 06:34 40.903586 22.518214 143 36967ft 477kts
09-Jun-17 06:35 40.803189 22.625093 143 36970ft 476kts
09-Jun-17 06:36 40.700812 22.733872 144 36969ft 476kts
09-Jun-17 06:37 40.598026 22.842526 144 36969ft 476kts
09-Jun-17 06:38 40.495040 22.950931 144 36969ft 476kts
09-Jun-17 06:39 40.400079 23.069891 136 37145ft 481kts
09-Jun-17 06:40 40.308974 23.195406 136 37934ft 481kts
09-Jun-17 06:41 40.217361 23.321316 136 38637ft 480kts
09-Jun-17 06:42 40.125263 23.447417 135 38975ft 480kts
09-Jun-17 06:43 40.033234 23.572883 135 38965ft 480kts
09-Jun-17 06:44 39.941688 23.697270 136 38968ft 479kts
09-Jun-17 06:45 39.850048 23.821038 136 38969ft 480kts
09-Jun-17 06:46 39.757589 23.945502 136 38987ft 480kts
09-Jun-17 06:47 39.665229 24.069348 136 38996ft 479kts
09-Jun-17 06:48 39.572704 24.192882 136 38997ft 478kts
09-Jun-17 06:49 39.479740 24.316543 136 38998ft 479kts
09-Jun-17 06:50 39.386990 24.439393 136 38996ft 479kts
09-Jun-17 06:51 39.294707 24.562093 136 38995ft 479kts
09-Jun-17 06:52 39.203028 24.684516 136 38995ft 479kts
09-Jun-17 06:53 39.111130 24.806745 137 38994ft 479kts
09-Jun-17 06:54 39.017480 24.928492 137 38993ft 478kts
09-Jun-17 06:55 38.924216 25.049104 137 38997ft 479kts
09-Jun-17 06:56 38.831091 25.168931 137 38996ft 479kts
09-Jun-17 06:57 38.737309 25.289280 137 38934ft 478kts
09-Jun-17 06:58 38.643192 25.409583 137 38945ft 479kts
09-Jun-17 06:59 38.549471 25.528924 137 38943ft 478kts
09-Jun-17 07:00 38.455552 25.648064 138 38941ft 477kts
09-Jun-17 07:01 38.362682 25.765588 139 38941ft 476kts
09-Jun-17 07:02 38.268762 25.884329 139 38942ft 476kts
09-Jun-17 07:03 38.171224 25.995205 143 38940ft 474kts
09-Jun-17 07:04 38.072447 26.104503 143 38941ft 474kts
09-Jun-17 07:05 37.972896 26.214227 143 38942ft 474kts
09-Jun-17 07:06 37.874711 26.321982 143 38943ft 474kts
09-Jun-17 07:07 37.774897 26.430799 143 38943ft 474kts
09-Jun-17 07:08 37.675523 26.538820 143 38943ft 474kts
09-Jun-17 07:09 37.575966 26.646925 143 38942ft 474kts
09-Jun-17 07:10 37.476959 26.754180 144 38940ft 474kts
09-Jun-17 07:11 37.378591 26.862533 140 38894ft 474kts
09-Jun-17 07:12 37.283134 26.976771 141 38890ft 476kts
09-Jun-17 07:13 37.196161 27.080345 141 38886ft 475kts
09-Jun-17 07:14 37.100441 27.193940 141 38888ft 475kts
09-Jun-17 07:15 37.004302 27.307614 141 38888ft 475kts
09-Jun-17 07:16 36.908387 27.420608 141 38895ft 476kts
09-Jun-17 07:17 36.812557 27.532950 141 38893ft 476kts
09-Jun-17 07:18 36.716626 27.645136 141 38850ft 476kts
09-Jun-17 07:19 36.621795 27.755804 142 38861ft 475kts
09-Jun-17 07:20 36.527516 27.865307 142 38863ft 474kts
09-Jun-17 07:21 36.436015 27.971701 150 38849ft 468kts
09-Jun-17 07:22 36.321540 28.036609 161 38867ft 459kts
09-Jun-17 07:23 36.226050 28.131527 117 38874ft 492kts
09-Jun-17 07:24 36.154823 28.272843 130 38856ft 483kts
09-Jun-17 07:25 36.077304 28.408877 130 38861ft 484kts
09-Jun-17 07:26 35.999753 28.544062 130 38862ft 484kts
09-Jun-17 07:27 35.922216 28.678741 131 38824ft 483kts
09-Jun-17 07:28 35.844623 28.812839 131 38836ft 483kts
09-Jun-17 07:29 35.766645 28.947155 131 38835ft 483kts
09-Jun-17 07:30 35.688569 29.081144 131 38833ft 483kts
09-Jun-17 07:31 35.610238 29.215054 131 38834ft 483kts
09-Jun-17 07:32 35.531571 29.349022 131 38834ft 483kts
09-Jun-17 07:33 35.453201 29.481985 131 38834ft 482kts
09-Jun-17 07:34 35.374596 29.614817 131 38835ft 483kts
09-Jun-17 07:35 35.296191 29.746962 132 38834ft 482kts
09-Jun-17 07:36 35.217417 29.879103 132 38832ft 482kts
09-Jun-17 07:37 35.138285 30.011330 132 38832ft 483kts
09-Jun-17 07:38 35.058891 30.143695 133 38833ft 490kts
09-Jun-17 07:39 34.977882 30.277878 133 38871ft 489kts
09-Jun-17 07:40 34.897254 30.411079 133 38861ft 490kts
09-Jun-17 07:41 34.816472 30.543913 133 38852ft 488kts
09-Jun-17 07:42 34.738113 30.672336 133 38860ft 491kts
09-Jun-17 07:43 34.657033 30.804937 134 38864ft 491kts
09-Jun-17 07:44 34.575905 30.936995 134 38860ft 490kts
09-Jun-17 07:45 34.494559 31.068931 134 38860ft 489kts
09-Jun-17 07:46 34.426676 31.178648 134 38861ft 489kts
09-Jun-17 07:47 34.331731 31.331601 134 38861ft 485kts
09-Jun-17 07:48 34.250276 31.462215 134 38857ft 488kts
09-Jun-17 07:49 34.182594 31.570396 134 38862ft 489kts
09-Jun-17 07:50 34.088839 31.719901 135 38859ft 487kts
09-Jun-17 07:51 34.020692 31.828094 135 38858ft 486kts
09-Jun-17 07:52 33.925006 31.979423 135 38859ft 487kts
09-Jun-17 07:53 33.843282 32.107929 135 38866ft 488kts
09-Jun-17 07:54 33.787860 32.195058 135 38859ft 486kts
09-Jun-17 07:55 33.689955 32.341758 135 38845ft 487kts
09-Jun-17 07:56 33.620722 32.448594 135 37830ft 487kts
09-Jun-17 07:57 33.538511 32.575262 134 36254ft 484kts
09-Jun-17 07:58 33.461511 32.693652 134 34822ft 487kts
09-Jun-17 07:59 33.436740 32.731654 134 34351ft 488kts
09-Jun-17 08:00 33.352973 32.859748 133 32793ft 491kts
09-Jun-17 08:01 33.268772 32.988072 133 31241ft 493kts
09-Jun-17 08:02 33.183834 33.117075 132 29672ft 496kts
09-Jun-17 08:03 33.099374 33.246066 131 27701ft 500kts
09-Jun-17 08:04 33.016665 33.373704 131 25079ft 476kts
09-Jun-17 08:05 32.937063 33.496056 130 22650ft 461kts
09-Jun-17 08:06 32.860549 33.613141 130 20306ft 445kts
09-Jun-17 08:07 32.789388 33.721985 130 18172ft 430kts
09-Jun-17 08:08 32.717144 33.832140 130 15964ft 418kts
09-Jun-17 08:09 32.646847 33.938942 130 13794ft 406kts
09-Jun-17 08:10 32.579059 34.041781 129 11874ft 384kts
09-Jun-17 08:11 32.518673 34.134246 129 11130ft 331kts
09-Jun-17 08:12 32.474276 34.223303 117 10540ft 309kts
09-Jun-17 08:13 32.435674 34.319585 116 10124ft 319kts
09-Jun-17 08:14 32.399084 34.411664 115 9192ft 304kts
09-Jun-17 08:15 32.363502 34.499424 125 8244ft 288kts
09-Jun-17 08:16 32.312970 34.556258 130 7366ft 276kts
09-Jun-17 08:17 32.263334 34.625299 130 6221ft 272kts
09-Jun-17 08:18 32.215161 34.691640 130 5216ft 264kts
09-Jun-17 08:19 32.167413 34.759099 125 3479ft 274kts
09-Jun-17 08:20 32.128411 34.831670 118 2569ft 245kts
09-Jun-17 08:21 32.105714 34.897074 95 2465ft 196kts
09-Jun-17 08:22 32.099869 34.961013 109 2385ft 193kts
09-Jun-17 08:23 32.058853 34.976294 185 1625ft 157kts
09-Jun-17 08:24 32.028631 34.955326 244 1237ft 141kts
09-Jun-17 08:25 32.020327 34.909968 261 493ft 138kts
09-Jun-17 08:26 32.015114 34.875625 258 122ft 43kts
09-Jun-17 08:27 32.009944 34.869448 146 120ft 16kts
09-Jun-17 08:28 32.006881 34.870616 101 124ft 10kts
09-Jun-17 08:29 32.006432 34.871464 182 125ft 0kts
09-Jun-17 08:30 32.035700 34.966487 227 1401ft 144kts
09-Jun-17 08:31 32.022258 34.923524 263 694ft 141kts
09-Jun-17 08:32 32.050939 34.975600 191 1575ft 142kts
09-Jun-17 08:33 32.024901 34.943891 258 1026ft 145kts
09-Jun-17 08:34 32.045437 34.973994 204 1529ft 144kts
09-Jun-17 08:35 32.023798 34.937200 262 871ft 144kts
09-Jun-17 08:36 32.017569 34.891933 261 149ft 133kts
09-Jun-17 08:37 32.013392 34.871504 213 121ft 30kts
09-Jun-17 08:38 32.008855 34.870693 192 121ft 12kts
09-Jun-17 08:39 32.006797 34.871403 164 124ft 0kts
09-Jun-17 08:40 32.006432 34.871464 182 125ft 0kts
09-Jun-17 08:41 32.006430 34.871464 182 125ft 0kts

Navigation Log

Ident Type
Flight plan parsing failed, navigation log unavailable